sensor_id;sensor_type;location;lat;lon;timestamp;temperature;humidity
3648;DHT22;1840;48.892;15.312;2024-01-11T00:01:08;-12.80;91.10
3648;DHT22;1840;48.892;15.312;2024-01-11T00:03:39;-12.80;91.30
3648;DHT22;1840;48.892;15.312;2024-01-11T00:06:08;-12.70;91.50
3648;DHT22;1840;48.892;15.312;2024-01-11T00:08:36;-12.70;91.60
3648;DHT22;1840;48.892;15.312;2024-01-11T00:11:05;-12.60;91.20
3648;DHT22;1840;48.892;15.312;2024-01-11T00:13:33;-12.60;90.40
3648;DHT22;1840;48.892;15.312;2024-01-11T00:16:04;-12.70;90.20
3648;DHT22;1840;48.892;15.312;2024-01-11T00:18:32;-12.70;90.30
3648;DHT22;1840;48.892;15.312;2024-01-11T00:21:01;-12.80;90.00
3648;DHT22;1840;48.892;15.312;2024-01-11T00:23:29;-12.80;90.10
3648;DHT22;1840;48.892;15.312;2024-01-11T00:25:58;-12.90;90.00
3648;DHT22;1840;48.892;15.312;2024-01-11T00:28:26;-13.00;90.30
3648;DHT22;1840;48.892;15.312;2024-01-11T00:30:54;-13.00;91.00
3648;DHT22;1840;48.892;15.312;2024-01-11T00:33:22;-13.00;91.00
3648;DHT22;1840;48.892;15.312;2024-01-11T00:35:51;-13.00;91.00
3648;DHT22;1840;48.892;15.312;2024-01-11T00:38:20;-13.10;91.00
3648;DHT22;1840;48.892;15.312;2024-01-11T00:40:48;-13.00;91.10
3648;DHT22;1840;48.892;15.312;2024-01-11T00:43:17;-12.90;90.90
3648;DHT22;1840;48.892;15.312;2024-01-11T00:45:45;-12.90;90.40
3648;DHT22;1840;48.892;15.312;2024-01-11T00:48:13;-12.90;90.20
3648;DHT22;1840;48.892;15.312;2024-01-11T00:50:42;-13.00;89.50
3648;DHT22;1840;48.892;15.312;2024-01-11T00:53:10;-13.10;89.90
3648;DHT22;1840;48.892;15.312;2024-01-11T00:55:46;-13.10;90.10
3648;DHT22;1840;48.892;15.312;2024-01-11T00:58:14;-13.20;90.40
3648;DHT22;1840;48.892;15.312;2024-01-11T01:00:43;-13.20;90.60
3648;DHT22;1840;48.892;15.312;2024-01-11T01:03:11;-13.30;90.90
3648;DHT22;1840;48.892;15.312;2024-01-11T01:05:39;-13.10;90.50
3648;DHT22;1840;48.892;15.312;2024-01-11T01:08:07;-13.10;90.30
3648;DHT22;1840;48.892;15.312;2024-01-11T01:10:35;-13.30;88.80
3648;DHT22;1840;48.892;15.312;2024-01-11T01:13:05;-13.40;89.00
3648;DHT22;1840;48.892;15.312;2024-01-11T01:15:33;-13.50;90.00
3648;DHT22;1840;48.892;15.312;2024-01-11T01:18:01;-13.50;90.40
3648;DHT22;1840;48.892;15.312;2024-01-11T01:20:29;-13.40;90.60
3648;DHT22;1840;48.892;15.312;2024-01-11T01:22:58;-13.50;90.50
3648;DHT22;1840;48.892;15.312;2024-01-11T01:25:26;-13.50;90.50
3648;DHT22;1840;48.892;15.312;2024-01-11T01:27:55;-13.40;90.50
3648;DHT22;1840;48.892;15.312;2024-01-11T01:30:24;-13.40;90.20
3648;DHT22;1840;48.892;15.312;2024-01-11T01:32:53;-13.30;90.20
3648;DHT22;1840;48.892;15.312;2024-01-11T01:35:21;-13.30;90.10
3648;DHT22;1840;48.892;15.312;2024-01-11T01:37:49;-13.40;90.00
3648;DHT22;1840;48.892;15.312;2024-01-11T01:40:18;-13.40;89.70
3648;DHT22;1840;48.892;15.312;2024-01-11T01:42:46;-13.40;89.40
3648;DHT22;1840;48.892;15.312;2024-01-11T01:45:15;-13.40;89.90
3648;DHT22;1840;48.892;15.312;2024-01-11T01:47:47;-13.40;90.20
3648;DHT22;1840;48.892;15.312;2024-01-11T01:50:15;-13.50;90.20
3648;DHT22;1840;48.892;15.312;2024-01-11T01:52:45;-13.50;90.30
3648;DHT22;1840;48.892;15.312;2024-01-11T01:55:15;-13.50;90.50
3648;DHT22;1840;48.892;15.312;2024-01-11T01:57:43;-13.60;90.50
3648;DHT22;1840;48.892;15.312;2024-01-11T02:00:13;-13.50;90.40
3648;DHT22;1840;48.892;15.312;2024-01-11T02:02:43;-13.70;90.10
3648;DHT22;1840;48.892;15.312;2024-01-11T02:05:14;-13.70;90.60
3648;DHT22;1840;48.892;15.312;2024-01-11T02:07:42;-13.70;90.60
3648;DHT22;1840;48.892;15.312;2024-01-11T02:10:12;-13.70;90.50
3648;DHT22;1840;48.892;15.312;2024-01-11T02:12:41;-13.70;90.40
3648;DHT22;1840;48.892;15.312;2024-01-11T02:15:09;-13.80;90.50
3648;DHT22;1840;48.892;15.312;2024-01-11T02:17:40;-13.70;90.50
3648;DHT22;1840;48.892;15.312;2024-01-11T02:20:13;-13.80;90.20
3648;DHT22;1840;48.892;15.312;2024-01-11T02:22:50;-13.80;90.50
3648;DHT22;1840;48.892;15.312;2024-01-11T02:25:21;-13.80;90.60
3648;DHT22;1840;48.892;15.312;2024-01-11T02:27:51;-13.70;90.20
3648;DHT22;1840;48.892;15.312;2024-01-11T02:30:19;-13.80;90.10
3648;DHT22;1840;48.892;15.312;2024-01-11T02:32:48;-13.80;90.40
3648;DHT22;1840;48.892;15.312;2024-01-11T02:35:18;-13.70;90.20
3648;DHT22;1840;48.892;15.312;2024-01-11T02:37:49;-13.70;90.10
3648;DHT22;1840;48.892;15.312;2024-01-11T02:40:19;-13.70;90.00
3648;DHT22;1840;48.892;15.312;2024-01-11T02:42:48;-13.70;90.00
3648;DHT22;1840;48.892;15.312;2024-01-11T02:45:16;-13.90;89.60
3648;DHT22;1840;48.892;15.312;2024-01-11T02:47:45;-14.10;90.20
3648;DHT22;1840;48.892;15.312;2024-01-11T02:50:14;-14.10;90.40
3648;DHT22;1840;48.892;15.312;2024-01-11T02:52:42;-14.00;90.40
3648;DHT22;1840;48.892;15.312;2024-01-11T02:55:10;-13.90;90.30
3648;DHT22;1840;48.892;15.312;2024-01-11T02:57:38;-13.90;90.70
3648;DHT22;1840;48.892;15.312;2024-01-11T03:00:08;-13.80;90.90
3648;DHT22;1840;48.892;15.312;2024-01-11T03:02:37;-13.90;90.50
3648;DHT22;1840;48.892;15.312;2024-01-11T03:05:06;-13.90;90.60
3648;DHT22;1840;48.892;15.312;2024-01-11T03:07:34;-13.80;90.90
3648;DHT22;1840;48.892;15.312;2024-01-11T03:10:02;-13.70;90.90
3648;DHT22;1840;48.892;15.312;2024-01-11T03:12:31;-13.70;90.30
3648;DHT22;1840;48.892;15.312;2024-01-11T03:15:00;-13.60;90.00
3648;DHT22;1840;48.892;15.312;2024-01-11T03:17:33;-13.80;89.80
3648;DHT22;1840;48.892;15.312;2024-01-11T03:20:02;-13.90;90.10
3648;DHT22;1840;48.892;15.312;2024-01-11T03:22:32;-13.90;90.50
3648;DHT22;1840;48.892;15.312;2024-01-11T03:25:00;-13.80;90.20
3648;DHT22;1840;48.892;15.312;2024-01-11T03:27:29;-13.70;89.50
3648;DHT22;1840;48.892;15.312;2024-01-11T03:29:59;-13.80;89.20
3648;DHT22;1840;48.892;15.312;2024-01-11T03:32:27;-13.80;89.00
3648;DHT22;1840;48.892;15.312;2024-01-11T03:34:57;-13.80;88.90
3648;DHT22;1840;48.892;15.312;2024-01-11T03:37:28;-13.90;89.00
3648;DHT22;1840;48.892;15.312;2024-01-11T03:39:56;-14.10;89.20
3648;DHT22;1840;48.892;15.312;2024-01-11T03:42:24;-14.20;89.60
3648;DHT22;1840;48.892;15.312;2024-01-11T03:44:52;-14.10;89.50
3648;DHT22;1840;48.892;15.312;2024-01-11T03:47:20;-14.00;89.80
3648;DHT22;1840;48.892;15.312;2024-01-11T03:49:49;-14.10;89.10
3648;DHT22;1840;48.892;15.312;2024-01-11T03:52:18;-14.10;89.30
3648;DHT22;1840;48.892;15.312;2024-01-11T03:54:47;-14.20;89.50
3648;DHT22;1840;48.892;15.312;2024-01-11T03:57:15;-14.20;89.60
3648;DHT22;1840;48.892;15.312;2024-01-11T03:59:44;-14.20;89.80
3648;DHT22;1840;48.892;15.312;2024-01-11T04:02:13;-14.30;89.40
3648;DHT22;1840;48.892;15.312;2024-01-11T04:04:42;-14.40;89.80
3648;DHT22;1840;48.892;15.312;2024-01-11T04:07:10;-14.50;89.60
3648;DHT22;1840;48.892;15.312;2024-01-11T04:09:39;-14.40;90.10
3648;DHT22;1840;48.892;15.312;2024-01-11T04:12:07;-14.20;90.10
3648;DHT22;1840;48.892;15.312;2024-01-11T04:14:38;-14.20;89.00
3648;DHT22;1840;48.892;15.312;2024-01-11T04:17:09;-14.20;88.30
3648;DHT22;1840;48.892;15.312;2024-01-11T04:19:39;-14.20;88.50
3648;DHT22;1840;48.892;15.312;2024-01-11T04:22:07;-14.30;88.70
3648;DHT22;1840;48.892;15.312;2024-01-11T04:24:43;-14.20;89.00
3648;DHT22;1840;48.892;15.312;2024-01-11T04:27:11;-14.20;88.60
3648;DHT22;1840;48.892;15.312;2024-01-11T04:29:39;-14.20;88.10
3648;DHT22;1840;48.892;15.312;2024-01-11T04:32:08;-14.30;88.10
3648;DHT22;1840;48.892;15.312;2024-01-11T04:34:36;-14.30;88.90
3648;DHT22;1840;48.892;15.312;2024-01-11T04:37:05;-14.40;89.80
3648;DHT22;1840;48.892;15.312;2024-01-11T04:39:35;-14.30;89.80
3648;DHT22;1840;48.892;15.312;2024-01-11T04:42:05;-14.30;89.70
3648;DHT22;1840;48.892;15.312;2024-01-11T04:44:33;-14.50;89.00
3648;DHT22;1840;48.892;15.312;2024-01-11T04:47:01;-14.50;89.60
3648;DHT22;1840;48.892;15.312;2024-01-11T04:49:35;-14.50;89.40
3648;DHT22;1840;48.892;15.312;2024-01-11T04:52:04;-14.40;88.90
3648;DHT22;1840;48.892;15.312;2024-01-11T04:54:34;-14.40;88.00
3648;DHT22;1840;48.892;15.312;2024-01-11T04:57:01;-14.50;88.10
3648;DHT22;1840;48.892;15.312;2024-01-11T04:59:33;-14.50;88.10
3648;DHT22;1840;48.892;15.312;2024-01-11T05:02:01;-14.50;87.80
3648;DHT22;1840;48.892;15.312;2024-01-11T05:04:32;-14.50;87.70
3648;DHT22;1840;48.892;15.312;2024-01-11T05:07:01;-14.60;87.30
3648;DHT22;1840;48.892;15.312;2024-01-11T05:09:29;-14.70;86.30
3648;DHT22;1840;48.892;15.312;2024-01-11T05:11:57;-14.80;85.80
3648;DHT22;1840;48.892;15.312;2024-01-11T05:14:25;-14.80;86.60
3648;DHT22;1840;48.892;15.312;2024-01-11T05:16:56;-14.90;87.60
3648;DHT22;1840;48.892;15.312;2024-01-11T05:19:24;-14.80;88.00
3648;DHT22;1840;48.892;15.312;2024-01-11T05:21:52;-14.70;88.30
3648;DHT22;1840;48.892;15.312;2024-01-11T05:24:20;-14.80;88.30
3648;DHT22;1840;48.892;15.312;2024-01-11T05:26:48;-14.80;88.80
3648;DHT22;1840;48.892;15.312;2024-01-11T05:29:16;-14.90;89.10
3648;DHT22;1840;48.892;15.312;2024-01-11T05:31:44;-14.90;88.90
3648;DHT22;1840;48.892;15.312;2024-01-11T05:34:14;-14.80;89.00
3648;DHT22;1840;48.892;15.312;2024-01-11T05:36:42;-14.90;88.80
3648;DHT22;1840;48.892;15.312;2024-01-11T05:39:10;-14.70;89.60
3648;DHT22;1840;48.892;15.312;2024-01-11T05:41:38;-14.60;88.80
3648;DHT22;1840;48.892;15.312;2024-01-11T05:44:06;-14.70;88.00
3648;DHT22;1840;48.892;15.312;2024-01-11T05:46:35;-14.70;88.70
3648;DHT22;1840;48.892;15.312;2024-01-11T05:49:03;-14.70;89.10
3648;DHT22;1840;48.892;15.312;2024-01-11T05:51:34;-14.60;88.80
3648;DHT22;1840;48.892;15.312;2024-01-11T05:54:02;-14.60;89.00
3648;DHT22;1840;48.892;15.312;2024-01-11T05:56:30;-14.60;89.20
3648;DHT22;1840;48.892;15.312;2024-01-11T05:59:00;-14.70;89.80
3648;DHT22;1840;48.892;15.312;2024-01-11T06:01:28;-14.80;90.10
3648;DHT22;1840;48.892;15.312;2024-01-11T06:04:03;-14.70;90.30
3648;DHT22;1840;48.892;15.312;2024-01-11T06:06:34;-14.50;90.30
3648;DHT22;1840;48.892;15.312;2024-01-11T06:09:02;-14.40;90.00
3648;DHT22;1840;48.892;15.312;2024-01-11T06:11:32;-14.30;89.50
3648;DHT22;1840;48.892;15.312;2024-01-11T06:14:00;-14.30;89.50
3648;DHT22;1840;48.892;15.312;2024-01-11T06:16:29;-14.40;88.30
3648;DHT22;1840;48.892;15.312;2024-01-11T06:18:57;-14.50;88.60
3648;DHT22;1840;48.892;15.312;2024-01-11T06:21:28;-14.50;87.90
3648;DHT22;1840;48.892;15.312;2024-01-11T06:23:57;-14.50;87.80
3648;DHT22;1840;48.892;15.312;2024-01-11T06:26:25;-14.60;87.70
3648;DHT22;1840;48.892;15.312;2024-01-11T06:28:53;-14.50;87.60
3648;DHT22;1840;48.892;15.312;2024-01-11T06:31:21;-14.60;87.80
3648;DHT22;1840;48.892;15.312;2024-01-11T06:33:53;-14.60;88.50
3648;DHT22;1840;48.892;15.312;2024-01-11T06:36:21;-14.60;89.00
3648;DHT22;1840;48.892;15.312;2024-01-11T06:38:54;-14.70;88.40
3648;DHT22;1840;48.892;15.312;2024-01-11T06:41:23;-14.90;88.30
3648;DHT22;1840;48.892;15.312;2024-01-11T06:43:52;-14.90;88.50
3648;DHT22;1840;48.892;15.312;2024-01-11T06:46:20;-14.80;88.80
3648;DHT22;1840;48.892;15.312;2024-01-11T06:48:49;-14.80;89.00
3648;DHT22;1840;48.892;15.312;2024-01-11T06:51:20;-14.70;88.00
3648;DHT22;1840;48.892;15.312;2024-01-11T06:53:49;-14.80;87.70
3648;DHT22;1840;48.892;15.312;2024-01-11T06:56:19;-14.90;87.70
3648;DHT22;1840;48.892;15.312;2024-01-11T06:58:49;-14.80;88.30
3648;DHT22;1840;48.892;15.312;2024-01-11T07:01:17;-14.80;88.80
3648;DHT22;1840;48.892;15.312;2024-01-11T07:03:45;-14.80;88.90
3648;DHT22;1840;48.892;15.312;2024-01-11T07:06:14;-14.70;88.50
3648;DHT22;1840;48.892;15.312;2024-01-11T07:08:42;-14.70;88.10
3648;DHT22;1840;48.892;15.312;2024-01-11T07:11:11;-14.60;87.50
3648;DHT22;1840;48.892;15.312;2024-01-11T07:13:39;-14.70;87.40
3648;DHT22;1840;48.892;15.312;2024-01-11T07:16:12;-14.90;88.10
3648;DHT22;1840;48.892;15.312;2024-01-11T07:18:42;-14.90;88.80
3648;DHT22;1840;48.892;15.312;2024-01-11T07:21:12;-14.80;89.30
3648;DHT22;1840;48.892;15.312;2024-01-11T07:23:40;-14.70;89.30
3648;DHT22;1840;48.892;15.312;2024-01-11T07:26:09;-14.60;89.20
3648;DHT22;1840;48.892;15.312;2024-01-11T07:28:39;-14.60;88.80
3648;DHT22;1840;48.892;15.312;2024-01-11T07:31:10;-14.60;89.40
3648;DHT22;1840;48.892;15.312;2024-01-11T07:33:38;-14.50;89.20
3648;DHT22;1840;48.892;15.312;2024-01-11T07:36:06;-14.50;89.00
3648;DHT22;1840;48.892;15.312;2024-01-11T07:38:38;-14.50;88.70
3648;DHT22;1840;48.892;15.312;2024-01-11T07:41:06;-14.50;89.00
3648;DHT22;1840;48.892;15.312;2024-01-11T07:43:34;-14.50;89.00
3648;DHT22;1840;48.892;15.312;2024-01-11T07:46:20;-14.50;89.20
3648;DHT22;1840;48.892;15.312;2024-01-11T07:49:02;-14.40;89.60
3648;DHT22;1840;48.892;15.312;2024-01-11T07:51:34;-14.30;89.50
3648;DHT22;1840;48.892;15.312;2024-01-11T07:54:03;-14.10;89.30
3648;DHT22;1840;48.892;15.312;2024-01-11T07:56:32;-14.00;89.10
3648;DHT22;1840;48.892;15.312;2024-01-11T07:59:00;-14.30;88.80
3648;DHT22;1840;48.892;15.312;2024-01-11T08:01:30;-14.30;89.70
3648;DHT22;1840;48.892;15.312;2024-01-11T08:03:58;-14.20;89.60
3648;DHT22;1840;48.892;15.312;2024-01-11T08:06:29;-14.30;89.60
3648;DHT22;1840;48.892;15.312;2024-01-11T08:08:59;-14.00;89.70
3648;DHT22;1840;48.892;15.312;2024-01-11T08:11:27;-14.10;89.40
3648;DHT22;1840;48.892;15.312;2024-01-11T08:13:57;-14.00;90.50
3648;DHT22;1840;48.892;15.312;2024-01-11T08:16:25;-13.70;90.60
3648;DHT22;1840;48.892;15.312;2024-01-11T08:18:55;-13.40;90.80
3648;DHT22;1840;48.892;15.312;2024-01-11T08:21:23;-13.00;91.10
3648;DHT22;1840;48.892;15.312;2024-01-11T08:23:54;-12.90;91.00
3648;DHT22;1840;48.892;15.312;2024-01-11T08:26:29;-12.90;91.10
3648;DHT22;1840;48.892;15.312;2024-01-11T08:28:57;-12.90;91.20
3648;DHT22;1840;48.892;15.312;2024-01-11T08:31:29;-12.50;91.40
3648;DHT22;1840;48.892;15.312;2024-01-11T08:33:58;-12.20;91.50
3648;DHT22;1840;48.892;15.312;2024-01-11T08:36:33;-12.10;91.30
3648;DHT22;1840;48.892;15.312;2024-01-11T08:39:02;-12.40;90.90
3648;DHT22;1840;48.892;15.312;2024-01-11T08:41:32;-12.40;91.10
3648;DHT22;1840;48.892;15.312;2024-01-11T08:44:01;-12.30;91.30
3648;DHT22;1840;48.892;15.312;2024-01-11T08:46:29;-12.00;90.70
3648;DHT22;1840;48.892;15.312;2024-01-11T08:49:02;-11.80;91.20
3648;DHT22;1840;48.892;15.312;2024-01-11T08:51:31;-11.60;91.10
3648;DHT22;1840;48.892;15.312;2024-01-11T08:53:59;-11.50;90.80
3648;DHT22;1840;48.892;15.312;2024-01-11T08:56:29;-11.40;90.90
3648;DHT22;1840;48.892;15.312;2024-01-11T08:59:01;-11.50;90.90
3648;DHT22;1840;48.892;15.312;2024-01-11T09:01:29;-11.50;91.00
3648;DHT22;1840;48.892;15.312;2024-01-11T09:03:58;-11.60;91.10
3648;DHT22;1840;48.892;15.312;2024-01-11T09:06:28;-11.50;91.60
3648;DHT22;1840;48.892;15.312;2024-01-11T09:08:57;-11.30;91.90
3648;DHT22;1840;48.892;15.312;2024-01-11T09:11:25;-11.10;91.90
3648;DHT22;1840;48.892;15.312;2024-01-11T09:13:55;-10.80;92.00
3648;DHT22;1840;48.892;15.312;2024-01-11T09:16:24;-10.70;91.60
3648;DHT22;1840;48.892;15.312;2024-01-11T09:18:52;-10.60;92.10
3648;DHT22;1840;48.892;15.312;2024-01-11T09:21:21;-10.40;91.90
3648;DHT22;1840;48.892;15.312;2024-01-11T09:23:50;-10.40;91.90
3648;DHT22;1840;48.892;15.312;2024-01-11T09:26:18;-10.10;91.80
3648;DHT22;1840;48.892;15.312;2024-01-11T09:28:47;-9.80;91.50
3648;DHT22;1840;48.892;15.312;2024-01-11T09:31:15;-9.60;91.20
3648;DHT22;1840;48.892;15.312;2024-01-11T09:33:50;-9.40;90.90
3648;DHT22;1840;48.892;15.312;2024-01-11T09:36:22;-9.60;90.40
3648;DHT22;1840;48.892;15.312;2024-01-11T09:38:51;-9.60;90.50
3648;DHT22;1840;48.892;15.312;2024-01-11T09:41:20;-9.80;90.30
3648;DHT22;1840;48.892;15.312;2024-01-11T09:43:53;-9.70;91.40
3648;DHT22;1840;48.892;15.312;2024-01-11T09:46:23;-9.70;91.20
3648;DHT22;1840;48.892;15.312;2024-01-11T09:48:52;-9.90;91.20
3648;DHT22;1840;48.892;15.312;2024-01-11T09:51:22;-9.70;91.40
3648;DHT22;1840;48.892;15.312;2024-01-11T09:53:55;-10.10;91.50
3648;DHT22;1840;48.892;15.312;2024-01-11T09:56:24;-10.00;92.10
3648;DHT22;1840;48.892;15.312;2024-01-11T09:58:53;-9.90;92.00
3648;DHT22;1840;48.892;15.312;2024-01-11T10:01:21;-9.60;92.10
3648;DHT22;1840;48.892;15.312;2024-01-11T10:03:50;-9.40;91.60
3648;DHT22;1840;48.892;15.312;2024-01-11T10:06:18;-9.40;91.90
3648;DHT22;1840;48.892;15.312;2024-01-11T10:08:47;-9.20;91.90
3648;DHT22;1840;48.892;15.312;2024-01-11T10:11:17;-9.20;91.70
3648;DHT22;1840;48.892;15.312;2024-01-11T10:13:46;-9.10;92.00
3648;DHT22;1840;48.892;15.312;2024-01-11T10:16:14;-9.10;91.70
3648;DHT22;1840;48.892;15.312;2024-01-11T10:18:42;-9.10;91.90
3648;DHT22;1840;48.892;15.312;2024-01-11T10:21:11;-9.20;92.40
3648;DHT22;1840;48.892;15.312;2024-01-11T10:23:39;-9.40;92.60
3648;DHT22;1840;48.892;15.312;2024-01-11T10:26:08;-8.90;93.00
3648;DHT22;1840;48.892;15.312;2024-01-11T10:28:37;-8.60;92.70
3648;DHT22;1840;48.892;15.312;2024-01-11T10:31:05;-8.60;92.30
3648;DHT22;1840;48.892;15.312;2024-01-11T10:33:34;-8.90;92.40
3648;DHT22;1840;48.892;15.312;2024-01-11T10:36:03;-8.50;92.70
3648;DHT22;1840;48.892;15.312;2024-01-11T10:38:35;-8.20;92.40
3648;DHT22;1840;48.892;15.312;2024-01-11T10:41:05;-8.00;92.20
3648;DHT22;1840;48.892;15.312;2024-01-11T10:43:38;-7.90;92.20
3648;DHT22;1840;48.892;15.312;2024-01-11T10:46:07;-8.00;91.70
3648;DHT22;1840;48.892;15.312;2024-01-11T10:48:38;-8.10;92.20
3648;DHT22;1840;48.892;15.312;2024-01-11T10:51:08;-8.00;92.20
3648;DHT22;1840;48.892;15.312;2024-01-11T10:53:42;-7.90;92.10
3648;DHT22;1840;48.892;15.312;2024-01-11T10:56:14;-8.00;92.10
3648;DHT22;1840;48.892;15.312;2024-01-11T10:58:45;-7.90;92.40
3648;DHT22;1840;48.892;15.312;2024-01-11T11:01:14;-7.80;92.30
3648;DHT22;1840;48.892;15.312;2024-01-11T11:03:49;-7.80;92.30
3648;DHT22;1840;48.892;15.312;2024-01-11T11:06:19;-7.70;92.20
3648;DHT22;1840;48.892;15.312;2024-01-11T11:08:49;-7.80;92.60
3648;DHT22;1840;48.892;15.312;2024-01-11T11:11:18;-7.80;92.80
3648;DHT22;1840;48.892;15.312;2024-01-11T11:13:48;-7.60;92.80
3648;DHT22;1840;48.892;15.312;2024-01-11T11:16:17;-7.60;92.70
3648;DHT22;1840;48.892;15.312;2024-01-11T11:18:46;-7.60;93.10
3648;DHT22;1840;48.892;15.312;2024-01-11T11:21:15;-7.40;93.00
3648;DHT22;1840;48.892;15.312;2024-01-11T11:23:44;-7.20;92.90
3648;DHT22;1840;48.892;15.312;2024-01-11T11:26:20;-7.30;93.10
3648;DHT22;1840;48.892;15.312;2024-01-11T11:29:01;-7.20;93.00
3648;DHT22;1840;48.892;15.312;2024-01-11T11:31:36;-7.00;93.00
3648;DHT22;1840;48.892;15.312;2024-01-11T11:34:06;-7.00;93.10
3648;DHT22;1840;48.892;15.312;2024-01-11T11:36:35;-6.70;93.30
3648;DHT22;1840;48.892;15.312;2024-01-11T11:39:03;-6.70;93.10
3648;DHT22;1840;48.892;15.312;2024-01-11T11:41:31;-6.40;93.20
3648;DHT22;1840;48.892;15.312;2024-01-11T11:44:05;-6.00;92.80
3648;DHT22;1840;48.892;15.312;2024-01-11T11:46:33;-5.70;92.70
3648;DHT22;1840;48.892;15.312;2024-01-11T11:49:02;-5.60;92.20
3648;DHT22;1840;48.892;15.312;2024-01-11T11:51:32;-5.50;92.30
3648;DHT22;1840;48.892;15.312;2024-01-11T11:54:02;-5.20;92.20
3648;DHT22;1840;48.892;15.312;2024-01-11T11:56:30;-5.10;92.00
3648;DHT22;1840;48.892;15.312;2024-01-11T11:58:59;-5.10;91.50
3648;DHT22;1840;48.892;15.312;2024-01-11T12:01:30;-5.00;91.30
3648;DHT22;1840;48.892;15.312;2024-01-11T12:03:59;-5.10;91.60
3648;DHT22;1840;48.892;15.312;2024-01-11T12:06:29;-5.20;91.20
3648;DHT22;1840;48.892;15.312;2024-01-11T12:08:57;-5.20;91.60
3648;DHT22;1840;48.892;15.312;2024-01-11T12:11:26;-5.00;91.40
3648;DHT22;1840;48.892;15.312;2024-01-11T12:13:55;-4.90;91.50
3648;DHT22;1840;48.892;15.312;2024-01-11T12:16:25;-4.90;91.30
3648;DHT22;1840;48.892;15.312;2024-01-11T12:18:55;-4.90;91.40
3648;DHT22;1840;48.892;15.312;2024-01-11T12:21:24;-4.90;91.30
3648;DHT22;1840;48.892;15.312;2024-01-11T12:23:53;-5.00;91.10
3648;DHT22;1840;48.892;15.312;2024-01-11T12:26:22;-5.00;91.40
3648;DHT22;1840;48.892;15.312;2024-01-11T12:28:51;-5.10;91.60
3648;DHT22;1840;48.892;15.312;2024-01-11T12:31:21;-5.30;91.50
3648;DHT22;1840;48.892;15.312;2024-01-11T12:33:50;-5.50;91.70
3648;DHT22;1840;48.892;15.312;2024-01-11T12:36:23;-5.40;92.00
3648;DHT22;1840;48.892;15.312;2024-01-11T12:38:52;-5.30;91.90
3648;DHT22;1840;48.892;15.312;2024-01-11T12:41:21;-5.10;91.80
3648;DHT22;1840;48.892;15.312;2024-01-11T12:43:53;-5.20;91.60
3648;DHT22;1840;48.892;15.312;2024-01-11T12:46:21;-5.00;92.00
3648;DHT22;1840;48.892;15.312;2024-01-11T12:48:50;-5.00;91.40
3648;DHT22;1840;48.892;15.312;2024-01-11T12:51:20;-5.10;91.50
3648;DHT22;1840;48.892;15.312;2024-01-11T12:53:51;-5.10;91.70
3648;DHT22;1840;48.892;15.312;2024-01-11T12:56:21;-5.00;91.80
3648;DHT22;1840;48.892;15.312;2024-01-11T12:58:50;-4.90;91.90
3648;DHT22;1840;48.892;15.312;2024-01-11T13:01:18;-4.70;91.40
3648;DHT22;1840;48.892;15.312;2024-01-11T13:03:47;-4.80;91.50
3648;DHT22;1840;48.892;15.312;2024-01-11T13:06:15;-4.80;91.70
3648;DHT22;1840;48.892;15.312;2024-01-11T13:08:48;-4.60;91.70
3648;DHT22;1840;48.892;15.312;2024-01-11T13:11:17;-4.60;91.40
3648;DHT22;1840;48.892;15.312;2024-01-11T13:13:47;-4.60;91.40
3648;DHT22;1840;48.892;15.312;2024-01-11T13:16:16;-4.50;91.70
3648;DHT22;1840;48.892;15.312;2024-01-11T13:18:46;-4.40;91.30
3648;DHT22;1840;48.892;15.312;2024-01-11T13:21:15;-4.60;91.30
3648;DHT22;1840;48.892;15.312;2024-01-11T13:23:43;-4.50;91.70
3648;DHT22;1840;48.892;15.312;2024-01-11T13:26:13;-4.40;91.50
3648;DHT22;1840;48.892;15.312;2024-01-11T13:28:42;-4.20;91.90
3648;DHT22;1840;48.892;15.312;2024-01-11T13:31:10;-4.00;91.50
3648;DHT22;1840;48.892;15.312;2024-01-11T13:33:38;-3.80;91.40
3648;DHT22;1840;48.892;15.312;2024-01-11T13:36:07;-3.80;91.10
3648;DHT22;1840;48.892;15.312;2024-01-11T13:38:36;-3.80;91.20
3648;DHT22;1840;48.892;15.312;2024-01-11T13:41:04;-3.70;91.50
3648;DHT22;1840;48.892;15.312;2024-01-11T13:43:36;-3.90;91.40
3648;DHT22;1840;48.892;15.312;2024-01-11T13:46:04;-3.70;91.40
3648;DHT22;1840;48.892;15.312;2024-01-11T13:48:35;-3.60;91.30
3648;DHT22;1840;48.892;15.312;2024-01-11T13:51:04;-3.50;91.20
3648;DHT22;1840;48.892;15.312;2024-01-11T13:53:32;-3.50;91.00
3648;DHT22;1840;48.892;15.312;2024-01-11T13:56:00;-3.30;90.90
3648;DHT22;1840;48.892;15.312;2024-01-11T13:58:29;-3.60;90.80
3648;DHT22;1840;48.892;15.312;2024-01-11T14:00:59;-3.60;90.80
3648;DHT22;1840;48.892;15.312;2024-01-11T14:03:27;-3.70;90.70
3648;DHT22;1840;48.892;15.312;2024-01-11T14:05:55;-4.00;90.90
3648;DHT22;1840;48.892;15.312;2024-01-11T14:08:24;-3.80;91.00
3648;DHT22;1840;48.892;15.312;2024-01-11T14:10:53;-3.70;90.80
3648;DHT22;1840;48.892;15.312;2024-01-11T14:13:22;-3.50;90.70
3648;DHT22;1840;48.892;15.312;2024-01-11T14:15:50;-3.60;90.40
3648;DHT22;1840;48.892;15.312;2024-01-11T14:18:20;-4.00;90.40
3648;DHT22;1840;48.892;15.312;2024-01-11T14:20:49;-4.10;91.20
3648;DHT22;1840;48.892;15.312;2024-01-11T14:23:18;-4.20;90.80
3648;DHT22;1840;48.892;15.312;2024-01-11T14:25:46;-4.30;91.10
3648;DHT22;1840;48.892;15.312;2024-01-11T14:28:15;-4.50;90.90
3648;DHT22;1840;48.892;15.312;2024-01-11T14:30:43;-4.70;91.20
3648;DHT22;1840;48.892;15.312;2024-01-11T14:33:12;-5.00;91.50
3648;DHT22;1840;48.892;15.312;2024-01-11T14:35:42;-5.10;92.00
3648;DHT22;1840;48.892;15.312;2024-01-11T14:38:10;-4.80;91.90
3648;DHT22;1840;48.892;15.312;2024-01-11T14:40:39;-4.80;91.70
3648;DHT22;1840;48.892;15.312;2024-01-11T14:43:08;-4.60;91.60
3648;DHT22;1840;48.892;15.312;2024-01-11T14:45:38;-4.50;91.40
3648;DHT22;1840;48.892;15.312;2024-01-11T14:48:06;-4.60;91.50
3648;DHT22;1840;48.892;15.312;2024-01-11T14:50:45;-4.60;91.50
3648;DHT22;1840;48.892;15.312;2024-01-11T14:53:14;-4.90;91.60
3648;DHT22;1840;48.892;15.312;2024-01-11T14:55:42;-4.90;91.90
3648;DHT22;1840;48.892;15.312;2024-01-11T14:58:10;-5.00;91.80
3648;DHT22;1840;48.892;15.312;2024-01-11T15:00:38;-5.20;92.00
3648;DHT22;1840;48.892;15.312;2024-01-11T15:03:07;-5.30;92.20
3648;DHT22;1840;48.892;15.312;2024-01-11T15:05:35;-5.20;92.30
3648;DHT22;1840;48.892;15.312;2024-01-11T15:08:05;-5.30;92.40
3648;DHT22;1840;48.892;15.312;2024-01-11T15:10:33;-5.20;92.40
3648;DHT22;1840;48.892;15.312;2024-01-11T15:13:02;-5.20;92.30
3648;DHT22;1840;48.892;15.312;2024-01-11T15:15:30;-5.20;92.40
3648;DHT22;1840;48.892;15.312;2024-01-11T15:17:58;-5.20;92.50
3648;DHT22;1840;48.892;15.312;2024-01-11T15:20:26;-4.90;92.30
3648;DHT22;1840;48.892;15.312;2024-01-11T15:22:54;-4.80;91.80
3648;DHT22;1840;48.892;15.312;2024-01-11T15:25:24;-4.80;91.70
3648;DHT22;1840;48.892;15.312;2024-01-11T15:27:57;-4.90;91.90
3648;DHT22;1840;48.892;15.312;2024-01-11T15:30:25;-5.00;92.10
3648;DHT22;1840;48.892;15.312;2024-01-11T15:32:53;-5.00;92.30
3648;DHT22;1840;48.892;15.312;2024-01-11T15:35:27;-5.20;92.40
3648;DHT22;1840;48.892;15.312;2024-01-11T15:37:55;-5.10;92.50
3648;DHT22;1840;48.892;15.312;2024-01-11T15:40:25;-5.00;92.60
3648;DHT22;1840;48.892;15.312;2024-01-11T15:42:53;-4.80;92.50
3648;DHT22;1840;48.892;15.312;2024-01-11T15:45:21;-5.00;92.60
3648;DHT22;1840;48.892;15.312;2024-01-11T15:47:52;-4.90;92.50
3648;DHT22;1840;48.892;15.312;2024-01-11T15:50:20;-5.10;92.50